sensor_id;sensor_type;location;lat;lon;timestamp;temperature;humidity
2391;DHT22;22957;50.824;4.360;2024-01-11T00:01:27;-0.90;99.90
2391;DHT22;22957;50.824;4.360;2024-01-11T00:03:52;-0.70;99.90
2391;DHT22;22957;50.824;4.360;2024-01-11T00:06:18;-0.70;99.90
2391;DHT22;22957;50.824;4.360;2024-01-11T00:08:43;-1.50;99.90
2391;DHT22;22957;50.824;4.360;2024-01-11T00:11:10;-1.50;99.90
2391;DHT22;22957;50.824;4.360;2024-01-11T00:13:35;-1.50;99.90
2391;DHT22;22957;50.824;4.360;2024-01-11T00:16:01;-1.70;99.90
2391;DHT22;22957;50.824;4.360;2024-01-11T00:18:26;-0.80;99.90
2391;DHT22;22957;50.824;4.360;2024-01-11T00:20:52;-1.30;99.90
2391;DHT22;22957;50.824;4.360;2024-01-11T00:23:17;-1.60;99.90
2391;DHT22;22957;50.824;4.360;2024-01-11T00:25:43;-1.70;99.90
2391;DHT22;22957;50.824;4.360;2024-01-11T00:28:09;-1.40;99.90
2391;DHT22;22957;50.824;4.360;2024-01-11T00:30:34;-1.50;99.90
2391;DHT22;22957;50.824;4.360;2024-01-11T00:33:00;-1.20;99.90
2391;DHT22;22957;50.824;4.360;2024-01-11T00:35:26;-1.10;99.90
2391;DHT22;22957;50.824;4.360;2024-01-11T00:37:51;-1.00;99.90
2391;DHT22;22957;50.824;4.360;2024-01-11T00:40:17;-1.50;99.90
2391;DHT22;22957;50.824;4.360;2024-01-11T00:42:42;-1.40;99.90
2391;DHT22;22957;50.824;4.360;2024-01-11T00:45:08;-1.50;99.90
2391;DHT22;22957;50.824;4.360;2024-01-11T00:47:34;-1.00;99.90
2391;DHT22;22957;50.824;4.360;2024-01-11T00:49:59;-1.00;99.90
2391;DHT22;22957;50.824;4.360;2024-01-11T00:52:25;-0.80;99.90
2391;DHT22;22957;50.824;4.360;2024-01-11T00:54:51;-1.70;99.90
2391;DHT22;22957;50.824;4.360;2024-01-11T00:57:16;-1.20;99.90
2391;DHT22;22957;50.824;4.360;2024-01-11T00:59:42;-1.70;99.90
2391;DHT22;22957;50.824;4.360;2024-01-11T01:02:07;-1.70;99.90
2391;DHT22;22957;50.824;4.360;2024-01-11T01:04:33;-2.00;99.90
2391;DHT22;22957;50.824;4.360;2024-01-11T01:06:58;-1.70;99.90
2391;DHT22;22957;50.824;4.360;2024-01-11T01:09:24;-1.50;99.90
2391;DHT22;22957;50.824;4.360;2024-01-11T01:11:50;-1.50;99.90
2391;DHT22;22957;50.824;4.360;2024-01-11T01:14:15;-1.60;99.90
2391;DHT22;22957;50.824;4.360;2024-01-11T01:16:41;-1.50;99.90
2391;DHT22;22957;50.824;4.360;2024-01-11T01:19:07;-1.10;99.90
2391;DHT22;22957;50.824;4.360;2024-01-11T01:21:32;-1.50;99.90
2391;DHT22;22957;50.824;4.360;2024-01-11T01:23:58;-1.30;99.90
2391;DHT22;22957;50.824;4.360;2024-01-11T01:26:24;-1.30;99.90
2391;DHT22;22957;50.824;4.360;2024-01-11T01:28:49;-1.40;99.90
2391;DHT22;22957;50.824;4.360;2024-01-11T01:31:15;-2.00;99.90
2391;DHT22;22957;50.824;4.360;2024-01-11T01:33:40;-1.60;99.90
2391;DHT22;22957;50.824;4.360;2024-01-11T01:36:10;-1.50;99.90
2391;DHT22;22957;50.824;4.360;2024-01-11T01:38:36;-1.50;99.90
2391;DHT22;22957;50.824;4.360;2024-01-11T01:41:01;-2.00;99.90
2391;DHT22;22957;50.824;4.360;2024-01-11T01:43:28;-1.00;99.90
2391;DHT22;22957;50.824;4.360;2024-01-11T01:45:53;-1.20;99.90
2391;DHT22;22957;50.824;4.360;2024-01-11T01:48:20;-1.80;99.90
2391;DHT22;22957;50.824;4.360;2024-01-11T01:50:47;-1.90;99.90
2391;DHT22;22957;50.824;4.360;2024-01-11T01:53:18;-1.40;99.90
2391;DHT22;22957;50.824;4.360;2024-01-11T01:55:45;-1.30;99.90
2391;DHT22;22957;50.824;4.360;2024-01-11T01:58:11;-1.70;99.90
2391;DHT22;22957;50.824;4.360;2024-01-11T02:00:37;-1.10;99.90
2391;DHT22;22957;50.824;4.360;2024-01-11T02:03:04;-0.20;99.90
2391;DHT22;22957;50.824;4.360;2024-01-11T02:05:30;-0.80;99.90
2391;DHT22;22957;50.824;4.360;2024-01-11T02:07:57;-1.60;99.90
2391;DHT22;22957;50.824;4.360;2024-01-11T02:10:24;-2.10;99.90
2391;DHT22;22957;50.824;4.360;2024-01-11T02:12:50;-1.70;99.90
2391;DHT22;22957;50.824;4.360;2024-01-11T02:15:16;-1.70;99.90
2391;DHT22;22957;50.824;4.360;2024-01-11T02:17:41;-1.70;99.90
2391;DHT22;22957;50.824;4.360;2024-01-11T02:20:07;-2.10;99.90
2391;DHT22;22957;50.824;4.360;2024-01-11T02:22:36;-1.90;99.90
2391;DHT22;22957;50.824;4.360;2024-01-11T02:25:03;-1.20;99.90
2391;DHT22;22957;50.824;4.360;2024-01-11T02:27:29;-1.70;99.90
2391;DHT22;22957;50.824;4.360;2024-01-11T02:29:54;-1.50;99.90
2391;DHT22;22957;50.824;4.360;2024-01-11T02:32:20;-2.00;99.90
2391;DHT22;22957;50.824;4.360;2024-01-11T02:34:46;-1.80;99.90
2391;DHT22;22957;50.824;4.360;2024-01-11T02:37:12;-1.10;99.90
2391;DHT22;22957;50.824;4.360;2024-01-11T02:39:38;-0.90;99.90
2391;DHT22;22957;50.824;4.360;2024-01-11T02:42:04;-1.50;99.90
2391;DHT22;22957;50.824;4.360;2024-01-11T02:44:30;-1.80;99.90
2391;DHT22;22957;50.824;4.360;2024-01-11T02:46:55;-1.00;99.90
2391;DHT22;22957;50.824;4.360;2024-01-11T02:49:21;-1.00;99.90
2391;DHT22;22957;50.824;4.360;2024-01-11T02:51:47;-0.40;99.90
2391;DHT22;22957;50.824;4.360;2024-01-11T02:54:12;-1.10;99.90
2391;DHT22;22957;50.824;4.360;2024-01-11T02:56:38;-1.60;99.90
2391;DHT22;22957;50.824;4.360;2024-01-11T02:59:03;-2.20;99.90
2391;DHT22;22957;50.824;4.360;2024-01-11T03:01:29;-1.60;99.90
2391;DHT22;22957;50.824;4.360;2024-01-11T03:03:55;-0.70;99.90
2391;DHT22;22957;50.824;4.360;2024-01-11T03:06:21;-0.80;99.90
2391;DHT22;22957;50.824;4.360;2024-01-11T03:08:50;-0.50;99.90
2391;DHT22;22957;50.824;4.360;2024-01-11T03:11:16;-1.30;99.90
2391;DHT22;22957;50.824;4.360;2024-01-11T03:13:42;-1.50;99.90
2391;DHT22;22957;50.824;4.360;2024-01-11T03:16:08;-1.20;99.90
2391;DHT22;22957;50.824;4.360;2024-01-11T03:18:33;-0.60;99.90
2391;DHT22;22957;50.824;4.360;2024-01-11T03:20:59;-1.50;99.90
2391;DHT22;22957;50.824;4.360;2024-01-11T03:23:24;-2.00;99.90
2391;DHT22;22957;50.824;4.360;2024-01-11T03:25:50;-1.50;99.90
2391;DHT22;22957;50.824;4.360;2024-01-11T03:28:16;-1.50;99.90
2391;DHT22;22957;50.824;4.360;2024-01-11T03:30:42;-1.90;99.90
2391;DHT22;22957;50.824;4.360;2024-01-11T03:33:08;-1.20;99.90
2391;DHT22;22957;50.824;4.360;2024-01-11T03:35:34;-1.60;99.90
2391;DHT22;22957;50.824;4.360;2024-01-11T03:37:59;-1.50;99.90
2391;DHT22;22957;50.824;4.360;2024-01-11T03:40:25;-0.80;99.90
2391;DHT22;22957;50.824;4.360;2024-01-11T03:42:51;-1.00;99.90
2391;DHT22;22957;50.824;4.360;2024-01-11T03:45:20;-1.50;99.90
2391;DHT22;22957;50.824;4.360;2024-01-11T03:47:45;-1.10;99.90
2391;DHT22;22957;50.824;4.360;2024-01-11T03:50:11;-0.70;99.90
2391;DHT22;22957;50.824;4.360;2024-01-11T03:52:37;-0.70;99.90
2391;DHT22;22957;50.824;4.360;2024-01-11T03:55:02;-0.20;99.90
2391;DHT22;22957;50.824;4.360;2024-01-11T03:57:28;0.50;99.90
2391;DHT22;22957;50.824;4.360;2024-01-11T03:59:54;-0.40;99.90
2391;DHT22;22957;50.824;4.360;2024-01-11T04:02:20;0.00;99.90
2391;DHT22;22957;50.824;4.360;2024-01-11T04:04:45;-0.20;99.90
2391;DHT22;22957;50.824;4.360;2024-01-11T04:07:11;-0.20;99.90
2391;DHT22;22957;50.824;4.360;2024-01-11T04:09:39;-0.30;99.90
2391;DHT22;22957;50.824;4.360;2024-01-11T04:12:05;0.20;99.90
2391;DHT22;22957;50.824;4.360;2024-01-11T04:14:31;0.30;99.90
2391;DHT22;22957;50.824;4.360;2024-01-11T04:16:57;-0.80;99.90
2391;DHT22;22957;50.824;4.360;2024-01-11T04:19:23;-1.50;99.90
2391;DHT22;22957;50.824;4.360;2024-01-11T04:21:48;-1.60;99.90
2391;DHT22;22957;50.824;4.360;2024-01-11T04:24:14;-1.30;99.90
2391;DHT22;22957;50.824;4.360;2024-01-11T04:26:40;-1.10;99.90
2391;DHT22;22957;50.824;4.360;2024-01-11T04:29:05;-1.10;99.90
2391;DHT22;22957;50.824;4.360;2024-01-11T04:31:31;-1.40;99.90
2391;DHT22;22957;50.824;4.360;2024-01-11T04:33:57;0.10;99.90
2391;DHT22;22957;50.824;4.360;2024-01-11T04:36:22;0.40;99.90
2391;DHT22;22957;50.824;4.360;2024-01-11T04:38:48;0.40;99.90
2391;DHT22;22957;50.824;4.360;2024-01-11T04:41:14;0.10;99.90
2391;DHT22;22957;50.824;4.360;2024-01-11T04:43:41;0.60;99.90
2391;DHT22;22957;50.824;4.360;2024-01-11T04:46:17;0.00;99.90
2391;DHT22;22957;50.824;4.360;2024-01-11T04:48:42;-0.40;99.90
2391;DHT22;22957;50.824;4.360;2024-01-11T04:51:08;0.00;99.90
2391;DHT22;22957;50.824;4.360;2024-01-11T04:53:38;0.40;99.90
2391;DHT22;22957;50.824;4.360;2024-01-11T04:56:05;0.00;99.90
2391;DHT22;22957;50.824;4.360;2024-01-11T04:58:31;0.40;99.90
2391;DHT22;22957;50.824;4.360;2024-01-11T05:00:57;-0.10;99.90
2391;DHT22;22957;50.824;4.360;2024-01-11T05:03:22;-0.20;99.90
2391;DHT22;22957;50.824;4.360;2024-01-11T05:05:48;-0.60;99.90
2391;DHT22;22957;50.824;4.360;2024-01-11T05:08:14;-0.90;99.90
2391;DHT22;22957;50.824;4.360;2024-01-11T05:10:39;-0.50;99.90
2391;DHT22;22957;50.824;4.360;2024-01-11T05:13:05;-0.20;99.90
2391;DHT22;22957;50.824;4.360;2024-01-11T05:15:30;-1.00;99.90
2391;DHT22;22957;50.824;4.360;2024-01-11T05:17:56;-0.50;99.90
2391;DHT22;22957;50.824;4.360;2024-01-11T05:20:22;-0.60;99.90
2391;DHT22;22957;50.824;4.360;2024-01-11T05:22:47;-0.80;99.90
2391;DHT22;22957;50.824;4.360;2024-01-11T05:25:13;-0.50;99.90
2391;DHT22;22957;50.824;4.360;2024-01-11T05:27:39;-0.20;99.90
2391;DHT22;22957;50.824;4.360;2024-01-11T05:30:05;-0.40;99.90
2391;DHT22;22957;50.824;4.360;2024-01-11T05:32:31;0.40;99.90
2391;DHT22;22957;50.824;4.360;2024-01-11T05:34:57;0.70;99.90
2391;DHT22;22957;50.824;4.360;2024-01-11T05:37:22;0.40;99.90
2391;DHT22;22957;50.824;4.360;2024-01-11T05:39:48;-0.20;99.90
2391;DHT22;22957;50.824;4.360;2024-01-11T05:42:13;0.80;99.90
2391;DHT22;22957;50.824;4.360;2024-01-11T05:44:39;0.30;99.90
2391;DHT22;22957;50.824;4.360;2024-01-11T05:47:05;-0.50;99.90
2391;DHT22;22957;50.824;4.360;2024-01-11T05:49:30;0.10;99.90
2391;DHT22;22957;50.824;4.360;2024-01-11T05:51:56;-0.80;99.90
2391;DHT22;22957;50.824;4.360;2024-01-11T05:54:21;-0.20;99.90
2391;DHT22;22957;50.824;4.360;2024-01-11T05:56:47;-1.00;99.90
2391;DHT22;22957;50.824;4.360;2024-01-11T05:59:13;-0.90;99.90
2391;DHT22;22957;50.824;4.360;2024-01-11T06:01:41;-0.80;99.90
2391;DHT22;22957;50.824;4.360;2024-01-11T06:04:10;-1.00;99.90
2391;DHT22;22957;50.824;4.360;2024-01-11T06:06:35;-0.40;99.90
2391;DHT22;22957;50.824;4.360;2024-01-11T06:09:01;-0.40;99.90
2391;DHT22;22957;50.824;4.360;2024-01-11T06:11:29;-0.80;99.90
2391;DHT22;22957;50.824;4.360;2024-01-11T06:13:55;-0.60;99.90
2391;DHT22;22957;50.824;4.360;2024-01-11T06:16:21;-1.20;99.90
2391;DHT22;22957;50.824;4.360;2024-01-11T06:18:47;-0.80;99.90
2391;DHT22;22957;50.824;4.360;2024-01-11T06:21:12;-0.90;99.90
2391;DHT22;22957;50.824;4.360;2024-01-11T06:23:38;-0.70;99.90
2391;DHT22;22957;50.824;4.360;2024-01-11T06:26:04;-0.90;99.90
2391;DHT22;22957;50.824;4.360;2024-01-11T06:28:29;-0.80;99.90
2391;DHT22;22957;50.824;4.360;2024-01-11T06:30:55;-1.30;99.90
2391;DHT22;22957;50.824;4.360;2024-01-11T06:33:21;-1.90;99.90
2391;DHT22;22957;50.824;4.360;2024-01-11T06:35:46;-1.90;99.90
2391;DHT22;22957;50.824;4.360;2024-01-11T06:38:12;-2.60;99.90
2391;DHT22;22957;50.824;4.360;2024-01-11T06:40:38;-1.90;99.90
2391;DHT22;22957;50.824;4.360;2024-01-11T06:43:03;-3.10;99.90
2391;DHT22;22957;50.824;4.360;2024-01-11T06:45:29;-2.40;99.90
2391;DHT22;22957;50.824;4.360;2024-01-11T06:47:54;-1.80;99.90
2391;DHT22;22957;50.824;4.360;2024-01-11T06:50:20;-1.50;99.90
2391;DHT22;22957;50.824;4.360;2024-01-11T06:52:45;-1.60;99.90
2391;DHT22;22957;50.824;4.360;2024-01-11T06:55:11;-1.50;99.90
2391;DHT22;22957;50.824;4.360;2024-01-11T06:57:37;-2.10;99.90
2391;DHT22;22957;50.824;4.360;2024-01-11T07:00:03;-1.30;99.90
2391;DHT22;22957;50.824;4.360;2024-01-11T07:02:28;-1.20;99.90
2391;DHT22;22957;50.824;4.360;2024-01-11T07:04:54;-1.90;99.90
2391;DHT22;22957;50.824;4.360;2024-01-11T07:07:19;-2.00;99.90
2391;DHT22;22957;50.824;4.360;2024-01-11T07:09:45;-1.50;99.90
2391;DHT22;22957;50.824;4.360;2024-01-11T07:12:11;-1.80;99.90
2391;DHT22;22957;50.824;4.360;2024-01-11T07:14:36;-1.00;99.90
2391;DHT22;22957;50.824;4.360;2024-01-11T07:17:02;-2.00;99.90
2391;DHT22;22957;50.824;4.360;2024-01-11T07:19:29;-2.50;99.90
2391;DHT22;22957;50.824;4.360;2024-01-11T07:21:55;-2.60;99.90
2391;DHT22;22957;50.824;4.360;2024-01-11T07:24:20;-2.10;99.90
2391;DHT22;22957;50.824;4.360;2024-01-11T07:26:46;-2.60;99.90
2391;DHT22;22957;50.824;4.360;2024-01-11T07:29:11;-1.70;99.90
2391;DHT22;22957;50.824;4.360;2024-01-11T07:31:37;-2.10;99.90
2391;DHT22;22957;50.824;4.360;2024-01-11T07:34:02;-1.80;99.90
2391;DHT22;22957;50.824;4.360;2024-01-11T07:36:28;-1.90;99.90
2391;DHT22;22957;50.824;4.360;2024-01-11T07:38:54;-1.60;99.90
2391;DHT22;22957;50.824;4.360;2024-01-11T07:41:21;-2.60;99.90
2391;DHT22;22957;50.824;4.360;2024-01-11T07:43:47;-2.40;99.90
2391;DHT22;22957;50.824;4.360;2024-01-11T07:46:13;-1.80;99.90
2391;DHT22;22957;50.824;4.360;2024-01-11T07:48:39;-1.30;99.90
2391;DHT22;22957;50.824;4.360;2024-01-11T07:51:04;-1.50;99.90
2391;DHT22;22957;50.824;4.360;2024-01-11T07:53:30;-1.40;99.90
2391;DHT22;22957;50.824;4.360;2024-01-11T07:55:57;-1.90;99.90
2391;DHT22;22957;50.824;4.360;2024-01-11T07:58:23;-1.20;99.90
2391;DHT22;22957;50.824;4.360;2024-01-11T08:00:49;-1.20;99.90
2391;DHT22;22957;50.824;4.360;2024-01-11T08:03:15;-1.00;99.90
2391;DHT22;22957;50.824;4.360;2024-01-11T08:05:41;-1.60;99.90
2391;DHT22;22957;50.824;4.360;2024-01-11T08:08:08;-1.50;99.90
2391;DHT22;22957;50.824;4.360;2024-01-11T08:10:34;-1.50;99.90
2391;DHT22;22957;50.824;4.360;2024-01-11T08:13:00;-2.30;99.90
2391;DHT22;22957;50.824;4.360;2024-01-11T08:15:25;-3.00;99.90
2391;DHT22;22957;50.824;4.360;2024-01-11T08:17:51;-2.40;99.90
2391;DHT22;22957;50.824;4.360;2024-01-11T08:20:17;-2.30;99.90
2391;DHT22;22957;50.824;4.360;2024-01-11T08:22:42;-2.60;99.90
2391;DHT22;22957;50.824;4.360;2024-01-11T08:25:14;-2.70;99.90
2391;DHT22;22957;50.824;4.360;2024-01-11T08:27:40;-2.40;99.90
2391;DHT22;22957;50.824;4.360;2024-01-11T08:30:06;-1.00;99.90
2391;DHT22;22957;50.824;4.360;2024-01-11T08:32:33;-0.50;99.90
2391;DHT22;22957;50.824;4.360;2024-01-11T08:35:05;0.90;99.90
2391;DHT22;22957;50.824;4.360;2024-01-11T08:37:31;0.80;99.90
2391;DHT22;22957;50.824;4.360;2024-01-11T08:39:57;-0.30;99.90
2391;DHT22;22957;50.824;4.360;2024-01-11T08:42:23;-0.30;99.90
2391;DHT22;22957;50.824;4.360;2024-01-11T08:44:48;-1.70;99.90
2391;DHT22;22957;50.824;4.360;2024-01-11T08:47:14;-1.20;99.90
2391;DHT22;22957;50.824;4.360;2024-01-11T08:49:40;-2.80;99.90
2391;DHT22;22957;50.824;4.360;2024-01-11T08:52:07;-1.80;99.90
2391;DHT22;22957;50.824;4.360;2024-01-11T08:54:33;-1.60;99.90
2391;DHT22;22957;50.824;4.360;2024-01-11T08:56:59;-1.80;99.90
2391;DHT22;22957;50.824;4.360;2024-01-11T08:59:24;-2.20;99.90
2391;DHT22;22957;50.824;4.360;2024-01-11T09:01:51;-0.90;99.90
2391;DHT22;22957;50.824;4.360;2024-01-11T09:04:18;0.00;99.90
2391;DHT22;22957;50.824;4.360;2024-01-11T09:06:44;-0.20;99.90
2391;DHT22;22957;50.824;4.360;2024-01-11T09:09:13;0.90;99.90
2391;DHT22;22957;50.824;4.360;2024-01-11T09:11:40;2.00;99.90
2391;DHT22;22957;50.824;4.360;2024-01-11T09:14:08;1.30;99.90
2391;DHT22;22957;50.824;4.360;2024-01-11T09:16:38;0.10;99.90
2391;DHT22;22957;50.824;4.360;2024-01-11T09:19:05;-1.20;99.90
2391;DHT22;22957;50.824;4.360;2024-01-11T09:21:30;-1.10;99.90
2391;DHT22;22957;50.824;4.360;2024-01-11T09:23:56;-1.20;99.90
2391;DHT22;22957;50.824;4.360;2024-01-11T09:26:22;-1.60;99.90
2391;DHT22;22957;50.824;4.360;2024-01-11T09:28:48;-1.50;99.90
2391;DHT22;22957;50.824;4.360;2024-01-11T09:31:14;0.10;99.90
2391;DHT22;22957;50.824;4.360;2024-01-11T09:33:39;-1.00;99.90
2391;DHT22;22957;50.824;4.360;2024-01-11T09:36:07;-1.00;99.90
2391;DHT22;22957;50.824;4.360;2024-01-11T09:38:32;-0.10;99.90
2391;DHT22;22957;50.824;4.360;2024-01-11T09:41:11;0.60;99.90
2391;DHT22;22957;50.824;4.360;2024-01-11T09:43:37;2.00;99.90
2391;DHT22;22957;50.824;4.360;2024-01-11T09:46:04;2.80;99.90
2391;DHT22;22957;50.824;4.360;2024-01-11T09:48:34;1.60;99.90
2391;DHT22;22957;50.824;4.360;2024-01-11T09:51:01;1.50;99.90
2391;DHT22;22957;50.824;4.360;2024-01-11T09:53:29;3.00;99.90
2391;DHT22;22957;50.824;4.360;2024-01-11T09:55:58;-0.40;99.90
2391;DHT22;22957;50.824;4.360;2024-01-11T09:58:25;-0.40;99.90
2391;DHT22;22957;50.824;4.360;2024-01-11T10:00:55;1.10;99.90
2391;DHT22;22957;50.824;4.360;2024-01-11T10:03:23;2.60;99.90
2391;DHT22;22957;50.824;4.360;2024-01-11T10:05:50;2.10;99.90
2391;DHT22;22957;50.824;4.360;2024-01-11T10:08:21;1.20;99.90
2391;DHT22;22957;50.824;4.360;2024-01-11T10:10:47;0.30;99.90
2391;DHT22;22957;50.824;4.360;2024-01-11T10:13:14;0.50;99.90
2391;DHT22;22957;50.824;4.360;2024-01-11T10:15:39;1.80;99.90
2391;DHT22;22957;50.824;4.360;2024-01-11T10:18:05;1.10;99.90
2391;DHT22;22957;50.824;4.360;2024-01-11T10:20:31;-0.20;99.90
2391;DHT22;22957;50.824;4.360;2024-01-11T10:22:57;0.00;99.90
2391;DHT22;22957;50.824;4.360;2024-01-11T10:25:23;-0.20;99.90
2391;DHT22;22957;50.824;4.360;2024-01-11T10:27:49;-0.80;99.90
2391;DHT22;22957;50.824;4.360;2024-01-11T10:30:16;-0.50;99.90
2391;DHT22;22957;50.824;4.360;2024-01-11T10:32:45;0.30;99.90
2391;DHT22;22957;50.824;4.360;2024-01-11T10:35:11;2.40;99.90
2391;DHT22;22957;50.824;4.360;2024-01-11T10:37:37;3.70;99.90
2391;DHT22;22957;50.824;4.360;2024-01-11T10:40:07;4.70;99.90
2391;DHT22;22957;50.824;4.360;2024-01-11T10:42:44;5.00;99.90
2391;DHT22;22957;50.824;4.360;2024-01-11T10:45:20;3.80;99.90
2391;DHT22;22957;50.824;4.360;2024-01-11T10:48:15;2.90;99.90
2391;DHT22;22957;50.824;4.360;2024-01-11T10:50:45;2.10;99.90
2391;DHT22;22957;50.824;4.360;2024-01-11T10:53:46;2.60;99.90
2391;DHT22;22957;50.824;4.360;2024-01-11T10:56:13;3.40;99.90
2391;DHT22;22957;50.824;4.360;2024-01-11T10:58:42;3.10;99.90
2391;DHT22;22957;50.824;4.360;2024-01-11T11:01:10;3.60;99.90
2391;DHT22;22957;50.824;4.360;2024-01-11T11:03:36;4.30;99.90
2391;DHT22;22957;50.824;4.360;2024-01-11T11:06:04;3.90;99.90
2391;DHT22;22957;50.824;4.360;2024-01-11T11:08:34;2.90;99.90
2391;DHT22;22957;50.824;4.360;2024-01-11T11:11:01;3.60;99.90
2391;DHT22;22957;50.824;4.360;2024-01-11T11:13:29;3.90;99.90
2391;DHT22;22957;50.824;4.360;2024-01-11T11:15:54;4.70;99.90
2391;DHT22;22957;50.824;4.360;2024-01-11T11:18:23;4.30;99.90
2391;DHT22;22957;50.824;4.360;2024-01-11T11:20:49;4.60;99.90
2391;DHT22;22957;50.824;4.360;2024-01-11T11:23:17;4.00;99.90
2391;DHT22;22957;50.824;4.360;2024-01-11T11:25:45;5.10;99.90
2391;DHT22;22957;50.824;4.360;2024-01-11T11:28:12;6.60;99.90
2391;DHT22;22957;50.824;4.360;2024-01-11T11:30:39;5.40;99.90
2391;DHT22;22957;50.824;4.360;2024-01-11T11:33:24;5.80;99.90
2391;DHT22;22957;50.824;4.360;2024-01-11T11:35:54;5.80;99.90
2391;DHT22;22957;50.824;4.360;2024-01-11T11:38:23;5.80;99.90
2391;DHT22;22957;50.824;4.360;2024-01-11T11:40:52;6.30;99.50
2391;DHT22;22957;50.824;4.360;2024-01-11T11:43:19;6.00;98.10
2391;DHT22;22957;50.824;4.360;2024-01-11T11:45:52;4.70;99.90
2391;DHT22;22957;50.824;4.360;2024-01-11T11:53:36;5.20;99.20
2391;DHT22;22957;50.824;4.360;2024-01-11T11:56:02;5.90;99.50
2391;DHT22;22957;50.824;4.360;2024-01-11T11:58:29;6.00;97.30
2391;DHT22;22957;50.824;4.360;2024-01-11T12:00:55;4.80;99.90
2391;DHT22;22957;50.824;4.360;2024-01-11T12:03:30;4.40;99.00
2391;DHT22;22957;50.824;4.360;2024-01-11T12:05:57;3.30;99.90
2391;DHT22;22957;50.824;4.360;2024-01-11T12:08:23;3.30;99.90
2391;DHT22;22957;50.824;4.360;2024-01-11T12:10:49;5.70;99.90
2391;DHT22;22957;50.824;4.360;2024-01-11T12:13:15;6.40;99.00
2391;DHT22;22957;50.824;4.360;2024-01-11T12:15:41;4.70;98.40
2391;DHT22;22957;50.824;4.360;2024-01-11T12:18:06;3.80;99.90
2391;DHT22;22957;50.824;4.360;2024-01-11T12:20:33;2.90;99.90
2391;DHT22;22957;50.824;4.360;2024-01-11T12:22:59;3.10;99.90
2391;DHT22;22957;50.824;4.360;2024-01-11T12:25:25;4.20;99.90
2391;DHT22;22957;50.824;4.360;2024-01-11T12:27:52;3.60;99.90
2391;DHT22;22957;50.824;4.360;2024-01-11T12:30:17;5.80;99.90
2391;DHT22;22957;50.824;4.360;2024-01-11T12:32:43;6.10;99.10
2391;DHT22;22957;50.824;4.360;2024-01-11T12:35:10;6.50;98.70
2391;DHT22;22957;50.824;4.360;2024-01-11T12:37:36;3.70;98.70
2391;DHT22;22957;50.824;4.360;2024-01-11T12:40:01;3.50;99.90
2391;DHT22;22957;50.824;4.360;2024-01-11T12:42:28;4.80;99.90
2391;DHT22;22957;50.824;4.360;2024-01-11T12:44:54;4.30;99.90
2391;DHT22;22957;50.824;4.360;2024-01-11T12:47:20;5.80;99.90
2391;DHT22;22957;50.824;4.360;2024-01-11T12:49:46;3.90;99.90
2391;DHT22;22957;50.824;4.360;2024-01-11T12:52:16;4.70;99.70
2391;DHT22;22957;50.824;4.360;2024-01-11T12:54:43;5.70;99.90
2391;DHT22;22957;50.824;4.360;2024-01-11T12:57:12;5.00;99.80
2391;DHT22;22957;50.824;4.360;2024-01-11T12:59:42;4.10;98.80
2391;DHT22;22957;50.824;4.360;2024-01-11T13:02:09;3.40;99.90
2391;DHT22;22957;50.824;4.360;2024-01-11T13:04:38;4.50;99.90
2391;DHT22;22957;50.824;4.360;2024-01-11T13:07:04;4.40;99.90
2391;DHT22;22957;50.824;4.360;2024-01-11T13:09:29;3.30;99.90
2391;DHT22;22957;50.824;4.360;2024-01-11T13:11:55;5.20;99.90
2391;DHT22;22957;50.824;4.360;2024-01-11T13:14:20;4.50;99.60
2391;DHT22;22957;50.824;4.360;2024-01-11T13:16:46;4.10;99.90
2391;DHT22;22957;50.824;4.360;2024-01-11T13:19:14;4.20;99.90
2391;DHT22;22957;50.824;4.360;2024-01-11T13:21:40;3.60;99.90
2391;DHT22;22957;50.824;4.360;2024-01-11T13:24:06;4.10;99.90
2391;DHT22;22957;50.824;4.360;2024-01-11T13:26:35;3.90;99.30
2391;DHT22;22957;50.824;4.360;2024-01-11T13:29:02;3.60;99.90
2391;DHT22;22957;50.824;4.360;2024-01-11T13:31:28;5.00;99.90
2391;DHT22;22957;50.824;4.360;2024-01-11T13:33:53;4.70;99.90
2391;DHT22;22957;50.824;4.360;2024-01-11T13:36:22;2.80;99.90
2391;DHT22;22957;50.824;4.360;2024-01-11T13:38:48;3.60;99.90
2391;DHT22;22957;50.824;4.360;2024-01-11T13:41:15;2.50;99.90
2391;DHT22;22957;50.824;4.360;2024-01-11T13:43:41;4.40;99.90
2391;DHT22;22957;50.824;4.360;2024-01-11T13:46:07;3.60;99.90
2391;DHT22;22957;50.824;4.360;2024-01-11T13:48:33;4.10;99.90
2391;DHT22;22957;50.824;4.360;2024-01-11T13:50:59;4.10;99.90
2391;DHT22;22957;50.824;4.360;2024-01-11T13:53:25;4.20;99.90
2391;DHT22;22957;50.824;4.360;2024-01-11T13:55:51;4.40;99.90
2391;DHT22;22957;50.824;4.360;2024-01-11T13:58:17;4.60;99.90
2391;DHT22;22957;50.824;4.360;2024-01-11T14:00:44;4.80;99.90
2391;DHT22;22957;50.824;4.360;2024-01-11T14:03:09;4.40;99.90
2391;DHT22;22957;50.824;4.360;2024-01-11T14:05:36;5.60;99.90
2391;DHT22;22957;50.824;4.360;2024-01-11T14:08:02;4.60;99.90
2391;DHT22;22957;50.824;4.360;2024-01-11T14:10:31;5.70;99.90
2391;DHT22;22957;50.824;4.360;2024-01-11T14:12:59;5.80;99.90
2391;DHT22;22957;50.824;4.360;2024-01-11T14:15:25;5.30;99.90
2391;DHT22;22957;50.824;4.360;2024-01-11T14:17:51;5.80;99.90
2391;DHT22;22957;50.824;4.360;2024-01-11T14:20:16;5.70;99.80
2391;DHT22;22957;50.824;4.360;2024-01-11T14:22:44;4.80;99.00
2391;DHT22;22957;50.824;4.360;2024-01-11T14:25:13;5.10;99.90
2391;DHT22;22957;50.824;4.360;2024-01-11T14:27:38;6.30;99.80
2391;DHT22;22957;50.824;4.360;2024-01-11T14:30:05;4.50;99.90
2391;DHT22;22957;50.824;4.360;2024-01-11T14:32:32;5.10;99.90
2391;DHT22;22957;50.824;4.360;2024-01-11T14:34:58;5.00;99.70
2391;DHT22;22957;50.824;4.360;2024-01-11T14:37:26;4.50;99.90
2391;DHT22;22957;50.824;4.360;2024-01-11T14:39:52;4.80;99.90
2391;DHT22;22957;50.824;4.360;2024-01-11T14:42:18;5.40;98.90
2391;DHT22;22957;50.824;4.360;2024-01-11T14:44:43;5.10;98.20
2391;DHT22;22957;50.824;4.360;2024-01-11T14:47:09;3.60;99.90
2391;DHT22;22957;50.824;4.360;2024-01-11T14:49:34;2.90;99.90
2391;DHT22;22957;50.824;4.360;2024-01-11T14:52:00;4.00;99.90
2391;DHT22;22957;50.824;4.360;2024-01-11T14:54:25;3.90;99.90
2391;DHT22;22957;50.824;4.360;2024-01-11T14:56:52;4.10;99.90
2391;DHT22;22957;50.824;4.360;2024-01-11T14:59:18;4.10;99.60
2391;DHT22;22957;50.824;4.360;2024-01-11T15:01:44;3.90;99.90
2391;DHT22;22957;50.824;4.360;2024-01-11T15:04:09;4.70;99.70
2391;DHT22;22957;50.824;4.360;2024-01-11T15:06:35;3.60;99.90
2391;DHT22;22957;50.824;4.360;2024-01-11T15:09:02;4.60;99.70
2391;DHT22;22957;50.824;4.360;2024-01-11T15:11:28;5.00;98.30
2391;DHT22;22957;50.824;4.360;2024-01-11T15:13:54;4.30;99.30
2391;DHT22;22957;50.824;4.360;2024-01-11T15:16:20;3.90;99.60
2391;DHT22;22957;50.824;4.360;2024-01-11T15:18:46;5.00;98.60
2391;DHT22;22957;50.824;4.360;2024-01-11T15:21:12;5.70;97.10
2391;DHT22;22957;50.824;4.360;2024-01-11T15:23:37;3.50;96.10
2391;DHT22;22957;50.824;4.360;2024-01-11T15:26:03;3.80;97.30
2391;DHT22;22957;50.824;4.360;2024-01-11T15:28:29;3.60;98.20
2391;DHT22;22957;50.824;4.360;2024-01-11T15:30:54;5.10;98.00
2391;DHT22;22957;50.824;4.360;2024-01-11T15:33:20;4.10;97.30
2391;DHT22;22957;50.824;4.360;2024-01-11T15:35:46;3.90;98.90
2391;DHT22;22957;50.824;4.360;2024-01-11T15:38:13;4.50;98.60
2391;DHT22;22957;50.824;4.360;2024-01-11T15:40:39;5.00;98.80
2391;DHT22;22957;50.824;4.360;2024-01-11T15:43:05;3.90;97.90
2391;DHT22;22957;50.824;4.360;2024-01-11T15:45:32;3.90;98.90
2391;DHT22;22957;50.824;4.360;2024-01-11T15:47:57;4.60;99.00
2391;DHT22;22957;50.824;4.360;2024-01-11T15:50:23;5.30;99.30
2391;DHT22;22957;50.824;4.360;2024-01-11T15:52:48;5.30;99.30